Accueil
METAR-TAF:

METAR-TAF

Aéroports :

Plate-forme pétrolière

Statfjord A, Norvège

latitude: 61-15N, longitude: 1-51E, altitude: 10 m

Observation

Le bulletin a été fait il y a 32 minutes, à 14:20 UTC
Vent 31 kt de ouest/sud-ouest
Température 11°C
Humidité 76%
Pression 1009 hPa
Visibilité: 8000 m

METAR: ENSF 121420Z AUTO 24031KT 8000 BKN037/// 11/07 Q1009 W///S5

Heure: 16:52 (14:52 UTC)


TAF: absent

Observations et prévisions météorologiques de plus de 4000 aéroports (messages METAR et TAF).

Les stations disponibles sont représentées par des disques jaunes et rouges sur la carte.

Passer la souris dessus pour voir le nom de la station.

Cliquer dessus pour voir les observations et prévisions météorologiques.

Pour changer de carte: cliquez sur les boutons verts avec une croix noire pour zoomer, sur le bouton vert avec un tiret pour effectuer un zoom arrière, ou sur les flèches vertes pour les cartes adjacentes.


METAR-TAF: